sensor_id;sensor_type;location;lat;lon;timestamp;P1;durP1;ratioP1;P2;durP2;ratioP2
75593;SDS011;64176;49.156;7.810;2023-03-23T00:01:34;1.48;;;0.93;;
75593;SDS011;64176;49.156;7.810;2023-03-23T00:07:04;1.92;;;1.20;;
75593;SDS011;64176;49.156;7.810;2023-03-23T00:09:48;1.23;;;0.90;;
75593;SDS011;64176;49.156;7.810;2023-03-23T00:12:37;1.67;;;1.58;;
75593;SDS011;64176;49.156;7.810;2023-03-23T00:15:28;0.88;;;0.82;;
75593;SDS011;64176;49.156;7.810;2023-03-23T00:18:16;1.77;;;0.80;;
75593;SDS011;64176;49.156;7.810;2023-03-23T00:21:06;0.98;;;0.80;;
75593;SDS011;64176;49.156;7.810;2023-03-23T00:26:39;1.23;;;0.68;;
75593;SDS011;64176;49.156;7.810;2023-03-23T00:29:24;1.88;;;0.80;;
75593;SDS011;64176;49.156;7.810;2023-03-23T00:32:09;1.65;;;0.70;;
75593;SDS011;64176;49.156;7.810;2023-03-23T00:34:56;2.20;;;0.73;;
75593;SDS011;64176;49.156;7.810;2023-03-23T00:37:44;0.93;;;0.73;;
75593;SDS011;64176;49.156;7.810;2023-03-23T00:40:28;1.27;;;1.00;;
75593;SDS011;64176;49.156;7.810;2023-03-23T00:43:15;1.10;;;0.77;;
75593;SDS011;64176;49.156;7.810;2023-03-23T00:46:03;1.23;;;1.13;;
75593;SDS011;64176;49.156;7.810;2023-03-23T00:48:52;1.73;;;0.60;;
75593;SDS011;64176;49.156;7.810;2023-03-23T00:51:38;1.77;;;1.10;;
75593;SDS011;64176;49.156;7.810;2023-03-23T00:54:23;2.50;;;0.90;;
75593;SDS011;64176;49.156;7.810;2023-03-23T00:57:08;1.38;;;1.05;;
75593;SDS011;64176;49.156;7.810;2023-03-23T00:59:53;0.80;;;0.50;;
75593;SDS011;64176;49.156;7.810;2023-03-23T01:02:37;2.38;;;1.10;;
75593;SDS011;64176;49.156;7.810;2023-03-23T01:05:24;2.83;;;0.85;;
75593;SDS011;64176;49.156;7.810;2023-03-23T01:08:10;1.13;;;0.63;;
75593;SDS011;64176;49.156;7.810;2023-03-23T01:11:01;1.77;;;0.75;;
75593;SDS011;64176;49.156;7.810;2023-03-23T01:13:50;2.03;;;1.10;;
75593;SDS011;64176;49.156;7.810;2023-03-23T01:16:37;1.20;;;1.02;;
75593;SDS011;64176;49.156;7.810;2023-03-23T01:19:21;1.52;;;0.80;;
75593;SDS011;64176;49.156;7.810;2023-03-23T01:22:06;1.08;;;0.90;;
75593;SDS011;64176;49.156;7.810;2023-03-23T01:24:50;1.42;;;0.70;;
75593;SDS011;64176;49.156;7.810;2023-03-23T01:30:21;1.30;;;0.82;;
75593;SDS011;64176;49.156;7.810;2023-03-23T01:33:05;1.30;;;0.70;;
75593;SDS011;64176;49.156;7.810;2023-03-23T01:35:52;1.85;;;0.80;;
75593;SDS011;64176;49.156;7.810;2023-03-23T01:38:36;1.30;;;1.15;;
75593;SDS011;64176;49.156;7.810;2023-03-23T01:41:21;1.30;;;1.20;;
75593;SDS011;64176;49.156;7.810;2023-03-23T01:47:22;1.42;;;1.00;;
75593;SDS011;64176;49.156;7.810;2023-03-23T01:50:08;1.00;;;0.80;;
75593;SDS011;64176;49.156;7.810;2023-03-23T01:55:42;1.50;;;1.30;;
75593;SDS011;64176;49.156;7.810;2023-03-23T01:58:32;1.30;;;0.60;;
75593;SDS011;64176;49.156;7.810;2023-03-23T02:01:18;0.85;;;0.80;;
75593;SDS011;64176;49.156;7.810;2023-03-23T02:04:08;0.98;;;0.90;;
75593;SDS011;64176;49.156;7.810;2023-03-23T02:06:56;1.75;;;0.82;;
75593;SDS011;64176;49.156;7.810;2023-03-23T02:09:43;0.98;;;0.85;;
75593;SDS011;64176;49.156;7.810;2023-03-23T02:12:30;1.52;;;1.08;;
75593;SDS011;64176;49.156;7.810;2023-03-23T02:15:14;1.67;;;0.80;;
75593;SDS011;64176;49.156;7.810;2023-03-23T02:27:13;1.50;;;0.63;;
75593;SDS011;64176;49.156;7.810;2023-03-23T02:33:09;1.98;;;1.35;;
75593;SDS011;64176;49.156;7.810;2023-03-23T02:36:09;1.67;;;1.00;;
75593;SDS011;64176;49.156;7.810;2023-03-23T02:41:56;2.63;;;1.38;;
75593;SDS011;64176;49.156;7.810;2023-03-23T02:44:45;3.38;;;0.82;;
75593;SDS011;64176;49.156;7.810;2023-03-23T02:47:30;1.05;;;0.95;;
75593;SDS011;64176;49.156;7.810;2023-03-23T02:50:19;2.10;;;1.10;;
75593;SDS011;64176;49.156;7.810;2023-03-23T02:53:07;1.40;;;1.30;;
75593;SDS011;64176;49.156;7.810;2023-03-23T02:55:54;1.38;;;0.77;;
75593;SDS011;64176;49.156;7.810;2023-03-23T02:58:44;2.15;;;1.13;;
75593;SDS011;64176;49.156;7.810;2023-03-23T03:04:17;1.75;;;1.65;;
75593;SDS011;64176;49.156;7.810;2023-03-23T03:07:23;1.35;;;1.08;;
75593;SDS011;64176;49.156;7.810;2023-03-23T03:19:10;1.60;;;1.15;;
75593;SDS011;64176;49.156;7.810;2023-03-23T03:21:58;2.15;;;1.20;;
75593;SDS011;64176;49.156;7.810;2023-03-23T03:24:56;1.38;;;1.10;;
75593;SDS011;64176;49.156;7.810;2023-03-23T03:27:43;2.47;;;1.67;;
75593;SDS011;64176;49.156;7.810;2023-03-23T03:30:37;1.10;;;0.90;;
75593;SDS011;64176;49.156;7.810;2023-03-23T03:33:28;2.03;;;0.90;;
75593;SDS011;64176;49.156;7.810;2023-03-23T03:36:18;1.40;;;0.90;;
75593;SDS011;64176;49.156;7.810;2023-03-23T03:39:07;1.65;;;0.85;;
75593;SDS011;64176;49.156;7.810;2023-03-23T03:41:56;1.23;;;0.80;;
75593;SDS011;64176;49.156;7.810;2023-03-23T03:44:42;1.73;;;1.20;;
75593;SDS011;64176;49.156;7.810;2023-03-23T03:47:29;1.77;;;1.20;;
75593;SDS011;64176;49.156;7.810;2023-03-23T03:50:15;1.77;;;1.20;;
75593;SDS011;64176;49.156;7.810;2023-03-23T03:53:00;2.85;;;1.05;;
75593;SDS011;64176;49.156;7.810;2023-03-23T03:55:47;0.93;;;0.80;;
75593;SDS011;64176;49.156;7.810;2023-03-23T03:58:34;1.85;;;1.13;;
75593;SDS011;64176;49.156;7.810;2023-03-23T04:01:23;2.08;;;1.10;;
75593;SDS011;64176;49.156;7.810;2023-03-23T04:04:10;1.58;;;1.38;;
75593;SDS011;64176;49.156;7.810;2023-03-23T04:06:54;1.25;;;1.08;;
75593;SDS011;64176;49.156;7.810;2023-03-23T04:09:40;1.23;;;0.95;;
75593;SDS011;64176;49.156;7.810;2023-03-23T04:12:27;2.20;;;1.20;;
75593;SDS011;64176;49.156;7.810;2023-03-23T04:15:14;0.98;;;0.70;;
75593;SDS011;64176;49.156;7.810;2023-03-23T04:17:59;1.50;;;0.70;;
75593;SDS011;64176;49.156;7.810;2023-03-23T04:20:44;2.00;;;1.30;;
75593;SDS011;64176;49.156;7.810;2023-03-23T04:23:31;1.27;;;0.90;;
75593;SDS011;64176;49.156;7.810;2023-03-23T04:26:19;2.65;;;1.40;;
75593;SDS011;64176;49.156;7.810;2023-03-23T04:29:10;1.02;;;0.93;;
75593;SDS011;64176;49.156;7.810;2023-03-23T04:32:19;1.08;;;0.73;;
75593;SDS011;64176;49.156;7.810;2023-03-23T04:35:10;1.08;;;0.93;;
75593;SDS011;64176;49.156;7.810;2023-03-23T04:38:02;2.00;;;1.13;;
75593;SDS011;64176;49.156;7.810;2023-03-23T04:40:47;1.00;;;0.63;;
75593;SDS011;64176;49.156;7.810;2023-03-23T04:43:57;1.77;;;1.13;;
75593;SDS011;64176;49.156;7.810;2023-03-23T04:46:53;2.63;;;1.23;;
75593;SDS011;64176;49.156;7.810;2023-03-23T04:49:41;1.30;;;1.10;;
75593;SDS011;64176;49.156;7.810;2023-03-23T04:52:33;2.17;;;1.20;;
75593;SDS011;64176;49.156;7.810;2023-03-23T04:55:21;1.20;;;0.80;;
75593;SDS011;64176;49.156;7.810;2023-03-23T04:58:13;2.30;;;1.73;;
75593;SDS011;64176;49.156;7.810;2023-03-23T05:01:23;2.33;;;1.20;;
75593;SDS011;64176;49.156;7.810;2023-03-23T05:04:39;1.38;;;0.80;;
75593;SDS011;64176;49.156;7.810;2023-03-23T05:07:31;0.88;;;0.70;;
75593;SDS011;64176;49.156;7.810;2023-03-23T05:10:16;1.33;;;1.10;;
75593;SDS011;64176;49.156;7.810;2023-03-23T05:13:02;1.52;;;1.10;;
75593;SDS011;64176;49.156;7.810;2023-03-23T05:15:47;1.40;;;1.00;;
75593;SDS011;64176;49.156;7.810;2023-03-23T05:18:35;2.30;;;0.90;;
75593;SDS011;64176;49.156;7.810;2023-03-23T05:21:22;1.33;;;1.23;;
75593;SDS011;64176;49.156;7.810;2023-03-23T05:24:11;8.65;;;4.50;;
75593;SDS011;64176;49.156;7.810;2023-03-23T05:26:57;4.75;;;2.20;;
75593;SDS011;64176;49.156;7.810;2023-03-23T05:29:48;3.92;;;2.28;;
75593;SDS011;64176;49.156;7.810;2023-03-23T05:32:33;2.63;;;1.42;;
75593;SDS011;64176;49.156;7.810;2023-03-23T05:35:31;3.03;;;1.52;;
75593;SDS011;64176;49.156;7.810;2023-03-23T05:38:16;1.38;;;1.02;;
75593;SDS011;64176;49.156;7.810;2023-03-23T05:41:00;1.25;;;0.95;;
75593;SDS011;64176;49.156;7.810;2023-03-23T05:43:53;1.63;;;1.20;;
75593;SDS011;64176;49.156;7.810;2023-03-23T05:46:45;2.45;;;1.50;;
75593;SDS011;64176;49.156;7.810;2023-03-23T05:49:30;2.90;;;1.15;;
75593;SDS011;64176;49.156;7.810;2023-03-23T05:52:15;1.83;;;0.90;;
75593;SDS011;64176;49.156;7.810;2023-03-23T05:55:02;1.83;;;1.60;;
75593;SDS011;64176;49.156;7.810;2023-03-23T05:57:49;3.58;;;1.50;;
75593;SDS011;64176;49.156;7.810;2023-03-23T06:00:59;1.90;;;1.30;;
75593;SDS011;64176;49.156;7.810;2023-03-23T06:03:46;2.20;;;1.13;;
75593;SDS011;64176;49.156;7.810;2023-03-23T06:06:36;1.48;;;1.33;;
75593;SDS011;64176;49.156;7.810;2023-03-23T06:09:24;3.72;;;1.10;;
75593;SDS011;64176;49.156;7.810;2023-03-23T06:12:28;1.65;;;0.90;;
75593;SDS011;64176;49.156;7.810;2023-03-23T06:15:32;1.85;;;1.65;;
75593;SDS011;64176;49.156;7.810;2023-03-23T06:18:16;1.98;;;1.10;;
75593;SDS011;64176;49.156;7.810;2023-03-23T06:21:17;2.00;;;1.30;;
75593;SDS011;64176;49.156;7.810;2023-03-23T06:24:12;2.08;;;1.27;;
75593;SDS011;64176;49.156;7.810;2023-03-23T06:26:56;3.17;;;2.10;;
75593;SDS011;64176;49.156;7.810;2023-03-23T06:29:43;2.22;;;1.52;;
75593;SDS011;64176;49.156;7.810;2023-03-23T06:32:27;2.75;;;1.55;;
75593;SDS011;64176;49.156;7.810;2023-03-23T06:35:14;2.90;;;2.00;;
75593;SDS011;64176;49.156;7.810;2023-03-23T06:37:58;2.63;;;2.33;;
75593;SDS011;64176;49.156;7.810;2023-03-23T06:41:10;2.95;;;1.45;;
75593;SDS011;64176;49.156;7.810;2023-03-23T06:44:00;1.73;;;1.20;;
75593;SDS011;64176;49.156;7.810;2023-03-23T06:46:48;3.83;;;1.25;;
75593;SDS011;64176;49.156;7.810;2023-03-23T06:49:43;1.92;;;1.40;;
75593;SDS011;64176;49.156;7.810;2023-03-23T06:52:40;1.38;;;0.90;;
75593;SDS011;64176;49.156;7.810;2023-03-23T06:55:29;1.40;;;1.30;;
75593;SDS011;64176;49.156;7.810;2023-03-23T06:58:13;1.67;;;1.52;;
75593;SDS011;64176;49.156;7.810;2023-03-23T07:00:58;2.78;;;1.73;;
75593;SDS011;64176;49.156;7.810;2023-03-23T07:03:49;2.88;;;1.13;;
75593;SDS011;64176;49.156;7.810;2023-03-23T07:06:39;2.20;;;1.23;;
75593;SDS011;64176;49.156;7.810;2023-03-23T07:09:25;1.30;;;1.20;;
75593;SDS011;64176;49.156;7.810;2023-03-23T07:12:12;1.77;;;1.10;;
75593;SDS011;64176;49.156;7.810;2023-03-23T07:17:47;1.90;;;1.40;;
75593;SDS011;64176;49.156;7.810;2023-03-23T07:20:40;1.63;;;1.02;;
75593;SDS011;64176;49.156;7.810;2023-03-23T07:23:31;2.35;;;1.50;;
75593;SDS011;64176;49.156;7.810;2023-03-23T07:26:23;1.40;;;0.95;;
75593;SDS011;64176;49.156;7.810;2023-03-23T07:29:11;2.88;;;1.50;;
75593;SDS011;64176;49.156;7.810;2023-03-23T07:31:59;1.70;;;1.48;;
75593;SDS011;64176;49.156;7.810;2023-03-23T07:34:45;2.13;;;1.40;;
75593;SDS011;64176;49.156;7.810;2023-03-23T07:37:40;2.10;;;1.30;;
75593;SDS011;64176;49.156;7.810;2023-03-23T07:40:26;1.77;;;1.40;;
75593;SDS011;64176;49.156;7.810;2023-03-23T07:43:16;1.75;;;1.20;;
75593;SDS011;64176;49.156;7.810;2023-03-23T07:46:19;3.45;;;2.00;;
75593;SDS011;64176;49.156;7.810;2023-03-23T07:49:19;6.07;;;3.38;;
75593;SDS011;64176;49.156;7.810;2023-03-23T07:52:15;4.70;;;2.88;;
75593;SDS011;64176;49.156;7.810;2023-03-23T07:55:02;2.47;;;1.85;;
75593;SDS011;64176;49.156;7.810;2023-03-23T07:57:57;2.15;;;1.10;;
75593;SDS011;64176;49.156;7.810;2023-03-23T08:00:41;3.47;;;2.13;;
75593;SDS011;64176;49.156;7.810;2023-03-23T08:03:26;19.95;;;10.52;;
75593;SDS011;64176;49.156;7.810;2023-03-23T08:06:31;10.63;;;7.47;;
75593;SDS011;64176;49.156;7.810;2023-03-23T08:09:33;3.90;;;2.85;;
75593;SDS011;64176;49.156;7.810;2023-03-23T08:12:33;6.13;;;1.88;;
75593;SDS011;64176;49.156;7.810;2023-03-23T08:15:38;2.38;;;1.23;;
75593;SDS011;64176;49.156;7.810;2023-03-23T08:18:32;1.90;;;1.42;;
75593;SDS011;64176;49.156;7.810;2023-03-23T08:21:54;2.03;;;1.10;;
75593;SDS011;64176;49.156;7.810;2023-03-23T08:24:55;1.48;;;1.38;;
75593;SDS011;64176;49.156;7.810;2023-03-23T08:27:55;3.47;;;1.40;;
75593;SDS011;64176;49.156;7.810;2023-03-23T08:34:17;2.15;;;1.30;;
75593;SDS011;64176;49.156;7.810;2023-03-23T08:37:27;2.13;;;1.13;;
75593;SDS011;64176;49.156;7.810;2023-03-23T08:40:27;1.48;;;1.15;;
75593;SDS011;64176;49.156;7.810;2023-03-23T08:43:29;1.65;;;1.50;;
75593;SDS011;64176;49.156;7.810;2023-03-23T08:46:35;2.67;;;1.50;;
75593;SDS011;64176;49.156;7.810;2023-03-23T08:49:30;3.10;;;1.60;;
75593;SDS011;64176;49.156;7.810;2023-03-23T08:52:37;1.75;;;1.33;;
75593;SDS011;64176;49.156;7.810;2023-03-23T08:55:39;2.47;;;1.42;;
75593;SDS011;64176;49.156;7.810;2023-03-23T08:58:52;3.90;;;1.52;;
75593;SDS011;64176;49.156;7.810;2023-03-23T09:02:09;1.95;;;1.58;;
75593;SDS011;64176;49.156;7.810;2023-03-23T09:05:01;2.25;;;1.52;;
75593;SDS011;64176;49.156;7.810;2023-03-23T09:08:16;1.92;;;1.45;;
75593;SDS011;64176;49.156;7.810;2023-03-23T09:11:02;2.80;;;1.30;;
75593;SDS011;64176;49.156;7.810;2023-03-23T09:13:47;1.95;;;1.65;;
75593;SDS011;64176;49.156;7.810;2023-03-23T09:16:34;3.33;;;2.17;;
75593;SDS011;64176;49.156;7.810;2023-03-23T09:19:18;2.45;;;1.38;;
75593;SDS011;64176;49.156;7.810;2023-03-23T09:22:06;1.95;;;1.75;;
75593;SDS011;64176;49.156;7.810;2023-03-23T09:24:51;2.22;;;1.70;;
75593;SDS011;64176;49.156;7.810;2023-03-23T09:27:38;2.55;;;2.13;;
75593;SDS011;64176;49.156;7.810;2023-03-23T09:30:26;2.17;;;1.42;;
75593;SDS011;64176;49.156;7.810;2023-03-23T09:33:13;2.10;;;1.60;;
75593;SDS011;64176;49.156;7.810;2023-03-23T09:35:58;4.00;;;3.70;;
75593;SDS011;64176;49.156;7.810;2023-03-23T09:38:42;6.50;;;2.83;;
75593;SDS011;64176;49.156;7.810;2023-03-23T09:44:35;3.78;;;1.88;;
75593;SDS011;64176;49.156;7.810;2023-03-23T09:47:31;4.57;;;1.40;;
75593;SDS011;64176;49.156;7.810;2023-03-23T09:50:25;1.63;;;1.15;;
75593;SDS011;64176;49.156;7.810;2023-03-23T09:53:27;2.45;;;1.25;;
75593;SDS011;64176;49.156;7.810;2023-03-23T09:56:19;2.03;;;1.58;;
75593;SDS011;64176;49.156;7.810;2023-03-23T09:59:16;2.15;;;1.40;;
75593;SDS011;64176;49.156;7.810;2023-03-23T10:02:09;2.35;;;1.60;;
75593;SDS011;64176;49.156;7.810;2023-03-23T10:05:03;1.75;;;1.42;;
75593;SDS011;64176;49.156;7.810;2023-03-23T10:08:19;1.10;;;1.00;;
75593;SDS011;64176;49.156;7.810;2023-03-23T10:20:09;3.60;;;1.92;;
75593;SDS011;64176;49.156;7.810;2023-03-23T10:23:05;2.30;;;1.42;;
75593;SDS011;64176;49.156;7.810;2023-03-23T10:29:20;2.00;;;1.60;;
75593;SDS011;64176;49.156;7.810;2023-03-23T10:32:11;2.97;;;1.95;;
75593;SDS011;64176;49.156;7.810;2023-03-23T10:34:59;2.50;;;1.27;;
75593;SDS011;64176;49.156;7.810;2023-03-23T10:37:55;2.55;;;1.88;;
75593;SDS011;64176;49.156;7.810;2023-03-23T10:40:47;2.72;;;1.38;;
75593;SDS011;64176;49.156;7.810;2023-03-23T10:43:34;2.05;;;1.10;;
75593;SDS011;64176;49.156;7.810;2023-03-23T10:46:25;1.83;;;1.65;;
75593;SDS011;64176;49.156;7.810;2023-03-23T10:49:24;2.95;;;1.17;;
75593;SDS011;64176;49.156;7.810;2023-03-23T10:55:23;1.83;;;1.40;;
75593;SDS011;64176;49.156;7.810;2023-03-23T10:58:26;3.03;;;1.58;;
75593;SDS011;64176;49.156;7.810;2023-03-23T11:01:29;2.28;;;2.08;;
75593;SDS011;64176;49.156;7.810;2023-03-23T11:04:18;2.38;;;1.58;;
75593;SDS011;64176;49.156;7.810;2023-03-23T11:07:04;1.90;;;1.40;;
75593;SDS011;64176;49.156;7.810;2023-03-23T11:10:16;3.53;;;1.75;;
75593;SDS011;64176;49.156;7.810;2023-03-23T11:13:05;1.55;;;1.45;;
75593;SDS011;64176;49.156;7.810;2023-03-23T11:15:58;2.22;;;1.35;;
75593;SDS011;64176;49.156;7.810;2023-03-23T11:18:44;1.73;;;1.42;;
75593;SDS011;64176;49.156;7.810;2023-03-23T11:21:30;1.67;;;1.20;;
75593;SDS011;64176;49.156;7.810;2023-03-23T11:24:18;1.98;;;1.20;;
75593;SDS011;64176;49.156;7.810;2023-03-23T11:29:52;1.45;;;1.00;;
75593;SDS011;64176;49.156;7.810;2023-03-23T11:32:42;1.17;;;1.08;;
75593;SDS011;64176;49.156;7.810;2023-03-23T11:35:30;2.53;;;1.23;;
75593;SDS011;64176;49.156;7.810;2023-03-23T11:38:16;1.13;;;0.95;;
75593;SDS011;64176;49.156;7.810;2023-03-23T11:41:08;1.40;;;1.25;;
75593;SDS011;64176;49.156;7.810;2023-03-23T11:43:56;1.67;;;1.10;;
75593;SDS011;64176;49.156;7.810;2023-03-23T11:46:59;1.30;;;0.82;;
75593;SDS011;64176;49.156;7.810;2023-03-23T11:50:01;2.58;;;1.65;;
75593;SDS011;64176;49.156;7.810;2023-03-23T11:53:02;2.10;;;1.20;;
75593;SDS011;64176;49.156;7.810;2023-03-23T11:55:53;1.45;;;1.30;;
75593;SDS011;64176;49.156;7.810;2023-03-23T11:58:45;1.88;;;1.20;;
75593;SDS011;64176;49.156;7.810;2023-03-23T12:04:58;1.98;;;1.00;;
75593;SDS011;64176;49.156;7.810;2023-03-23T12:16:52;2.55;;;1.85;;
75593;SDS011;64176;49.156;7.810;2023-03-23T12:31:57;1.98;;;1.70;;
75593;SDS011;64176;49.156;7.810;2023-03-23T12:34:51;1.83;;;1.40;;
75593;SDS011;64176;49.156;7.810;2023-03-23T12:43:49;3.08;;;2.08;;
75593;SDS011;64176;49.156;7.810;2023-03-23T12:49:49;2.20;;;1.52;;
75593;SDS011;64176;49.156;7.810;2023-03-23T12:53:25;2.03;;;1.17;;
75593;SDS011;64176;49.156;7.810;2023-03-23T13:01:48;1.75;;;1.48;;
75593;SDS011;64176;49.156;7.810;2023-03-23T13:04:40;3.15;;;2.28;;
75593;SDS011;64176;49.156;7.810;2023-03-23T13:07:30;2.03;;;1.35;;
75593;SDS011;64176;49.156;7.810;2023-03-23T13:10:23;3.38;;;1.52;;
75593;SDS011;64176;49.156;7.810;2023-03-23T13:13:21;2.72;;;1.88;;
75593;SDS011;64176;49.156;7.810;2023-03-23T13:16:20;1.95;;;1.40;;
75593;SDS011;64176;49.156;7.810;2023-03-23T13:22:13;1.48;;;1.10;;
75593;SDS011;64176;49.156;7.810;2023-03-23T13:25:07;2.15;;;1.73;;
75593;SDS011;64176;49.156;7.810;2023-03-23T13:27:59;2.67;;;2.22;;
75593;SDS011;64176;49.156;7.810;2023-03-23T13:30:52;1.95;;;1.60;;
75593;SDS011;64176;49.156;7.810;2023-03-23T13:33:38;2.42;;;1.33;;
75593;SDS011;64176;49.156;7.810;2023-03-23T13:39:27;1.63;;;1.35;;
75593;SDS011;64176;49.156;7.810;2023-03-23T13:42:18;2.05;;;0.93;;
75593;SDS011;64176;49.156;7.810;2023-03-23T13:45:06;3.38;;;1.80;;
75593;SDS011;64176;49.156;7.810;2023-03-23T13:51:00;1.90;;;1.50;;
75593;SDS011;64176;49.156;7.810;2023-03-23T13:53:46;1.50;;;0.98;;
75593;SDS011;64176;49.156;7.810;2023-03-23T13:56:40;2.47;;;1.77;;
75593;SDS011;64176;49.156;7.810;2023-03-23T13:59:32;1.27;;;1.08;;
75593;SDS011;64176;49.156;7.810;2023-03-23T14:02:38;2.20;;;1.83;;
75593;SDS011;64176;49.156;7.810;2023-03-23T14:11:17;2.97;;;1.40;;
75593;SDS011;64176;49.156;7.810;2023-03-23T14:14:06;4.10;;;1.73;;
75593;SDS011;64176;49.156;7.810;2023-03-23T14:17:33;2.95;;;2.00;;
75593;SDS011;64176;49.156;7.810;2023-03-23T14:20:19;2.05;;;1.63;;
75593;SDS011;64176;49.156;7.810;2023-03-23T14:23:14;3.40;;;1.50;;
75593;SDS011;64176;49.156;7.810;2023-03-23T14:26:01;3.42;;;1.80;;
75593;SDS011;64176;49.156;7.810;2023-03-23T14:28:54;2.28;;;1.48;;
75593;SDS011;64176;49.156;7.810;2023-03-23T14:31:38;2.65;;;1.55;;
75593;SDS011;64176;49.156;7.810;2023-03-23T14:34:30;2.47;;;1.58;;
75593;SDS011;64176;49.156;7.810;2023-03-23T14:37:16;4.43;;;2.03;;
75593;SDS011;64176;49.156;7.810;2023-03-23T14:40:00;3.13;;;2.10;;
75593;SDS011;64176;49.156;7.810;2023-03-23T14:42:50;9.98;;;1.80;;
75593;SDS011;64176;49.156;7.810;2023-03-23T14:45:37;4.25;;;2.25;;
75593;SDS011;64176;49.156;7.810;2023-03-23T14:48:25;3.03;;;1.58;;
75593;SDS011;64176;49.156;7.810;2023-03-23T14:51:16;3.15;;;1.55;;
75593;SDS011;64176;49.156;7.810;2023-03-23T14:54:07;3.80;;;1.90;;
75593;SDS011;64176;49.156;7.810;2023-03-23T14:57:02;4.57;;;2.05;;
75593;SDS011;64176;49.156;7.810;2023-03-23T14:59:54;2.65;;;1.90;;
75593;SDS011;64176;49.156;7.810;2023-03-23T15:02:39;2.20;;;1.65;;
75593;SDS011;64176;49.156;7.810;2023-03-23T15:05:28;3.05;;;1.80;;
75593;SDS011;64176;49.156;7.810;2023-03-23T15:08:18;2.67;;;2.15;;
75593;SDS011;64176;49.156;7.810;2023-03-23T15:14:26;4.70;;;2.17;;
75593;SDS011;64176;49.156;7.810;2023-03-23T15:17:20;12.70;;;4.53;;
75593;SDS011;64176;49.156;7.810;2023-03-23T15:23:13;5.20;;;2.58;;
75593;SDS011;64176;49.156;7.810;2023-03-23T15:26:02;6.32;;;2.60;;
75593;SDS011;64176;49.156;7.810;2023-03-23T15:28:49;5.18;;;2.53;;
75593;SDS011;64176;49.156;7.810;2023-03-23T15:37:25;2.92;;;2.05;;
75593;SDS011;64176;49.156;7.810;2023-03-23T15:40:19;3.20;;;2.33;;
75593;SDS011;64176;49.156;7.810;2023-03-23T15:43:27;3.05;;;2.65;;
75593;SDS011;64176;49.156;7.810;2023-03-23T15:51:44;3.97;;;2.97;;
75593;SDS011;64176;49.156;7.810;2023-03-23T15:54:33;3.70;;;2.63;;
75593;SDS011;64176;49.156;7.810;2023-03-23T15:57:20;4.88;;;3.05;;
75593;SDS011;64176;49.156;7.810;2023-03-23T16:00:06;5.00;;;2.70;;
75593;SDS011;64176;49.156;7.810;2023-03-23T16:02:57;3.38;;;2.60;;
75593;SDS011;64176;49.156;7.810;2023-03-23T16:05:44;4.28;;;2.97;;
75593;SDS011;64176;49.156;7.810;2023-03-23T16:08:28;3.42;;;2.60;;
75593;SDS011;64176;49.156;7.810;2023-03-23T16:11:14;3.83;;;3.05;;
75593;SDS011;64176;49.156;7.810;2023-03-23T16:14:00;4.80;;;2.80;;
75593;SDS011;64176;49.156;7.810;2023-03-23T16:16:45;7.20;;;2.80;;
75593;SDS011;64176;49.156;7.810;2023-03-23T16:22:17;4.15;;;2.88;;
75593;SDS011;64176;49.156;7.810;2023-03-23T16:25:02;5.57;;;3.22;;
75593;SDS011;64176;49.156;7.810;2023-03-23T16:27:46;3.97;;;2.55;;
75593;SDS011;64176;49.156;7.810;2023-03-23T16:30:33;3.15;;;2.85;;
75593;SDS011;64176;49.156;7.810;2023-03-23T16:33:20;4.20;;;2.65;;
75593;SDS011;64176;49.156;7.810;2023-03-23T16:36:09;6.25;;;4.25;;
75593;SDS011;64176;49.156;7.810;2023-03-23T16:38:54;7.30;;;4.28;;
75593;SDS011;64176;49.156;7.810;2023-03-23T16:41:43;14.65;;;6.18;;
75593;SDS011;64176;49.156;7.810;2023-03-23T16:44:28;10.50;;;5.25;;
75593;SDS011;64176;49.156;7.810;2023-03-23T16:47:12;28.85;;;9.93;;
75593;SDS011;64176;49.156;7.810;2023-03-23T16:49:55;34.58;;;13.27;;
75593;SDS011;64176;49.156;7.810;2023-03-23T16:52:40;18.05;;;7.88;;
75593;SDS011;64176;49.156;7.810;2023-03-23T16:55:26;27.15;;;8.32;;
75593;SDS011;64176;49.156;7.810;2023-03-23T16:58:10;23.65;;;7.75;;
75593;SDS011;64176;49.156;7.810;2023-03-23T17:00:54;12.70;;;4.45;;
75593;SDS011;64176;49.156;7.810;2023-03-23T17:03:38;16.10;;;6.50;;
75593;SDS011;64176;49.156;7.810;2023-03-23T17:06:22;39.80;;;9.25;;
75593;SDS011;64176;49.156;7.810;2023-03-23T17:09:06;25.38;;;7.78;;
75593;SDS011;64176;49.156;7.810;2023-03-23T17:11:51;12.70;;;5.82;;
75593;SDS011;64176;49.156;7.810;2023-03-23T17:14:38;10.20;;;5.30;;
75593;SDS011;64176;49.156;7.810;2023-03-23T17:17:24;7.97;;;4.57;;
75593;SDS011;64176;49.156;7.810;2023-03-23T17:20:08;5.03;;;2.85;;
75593;SDS011;64176;49.156;7.810;2023-03-23T17:22:55;3.03;;;2.47;;
75593;SDS011;64176;49.156;7.810;2023-03-23T17:25:40;33.95;;;10.02;;
75593;SDS011;64176;49.156;7.810;2023-03-23T17:28:26;10.48;;;5.38;;
75593;SDS011;64176;49.156;7.810;2023-03-23T17:31:13;14.77;;;6.28;;
75593;SDS011;64176;49.156;7.810;2023-03-23T17:33:59;27.85;;;10.15;;
75593;SDS011;64176;49.156;7.810;2023-03-23T17:36:46;13.45;;;5.93;;
75593;SDS011;64176;49.156;7.810;2023-03-23T17:39:30;8.20;;;4.47;;
75593;SDS011;64176;49.156;7.810;2023-03-23T17:42:14;3.47;;;2.72;;
75593;SDS011;64176;49.156;7.810;2023-03-23T17:44:59;7.32;;;4.53;;
75593;SDS011;64176;49.156;7.810;2023-03-23T17:47:46;6.47;;;4.93;;
75593;SDS011;64176;49.156;7.810;2023-03-23T17:50:29;6.38;;;4.70;;
75593;SDS011;64176;49.156;7.810;2023-03-23T17:53:14;7.20;;;5.15;;
75593;SDS011;64176;49.156;7.810;2023-03-23T17:56:02;14.52;;;7.53;;
75593;SDS011;64176;49.156;7.810;2023-03-23T17:58:47;18.98;;;10.52;;
75593;SDS011;64176;49.156;7.810;2023-03-23T18:01:31;38.40;;;17.88;;
75593;SDS011;64176;49.156;7.810;2023-03-23T18:04:15;55.53;;;21.58;;
75593;SDS011;64176;49.156;7.810;2023-03-23T18:06:59;30.80;;;17.92;;
75593;SDS011;64176;49.156;7.810;2023-03-23T18:09:43;17.92;;;12.70;;
75593;SDS011;64176;49.156;7.810;2023-03-23T18:12:29;17.30;;;13.05;;
75593;SDS011;64176;49.156;7.810;2023-03-23T18:15:13;16.42;;;12.60;;
75593;SDS011;64176;49.156;7.810;2023-03-23T18:18:00;15.50;;;13.30;;
75593;SDS011;64176;49.156;7.810;2023-03-23T18:20:46;16.27;;;12.82;;
75593;SDS011;64176;49.156;7.810;2023-03-23T18:23:30;21.83;;;18.20;;
75593;SDS011;64176;49.156;7.810;2023-03-23T18:26:20;22.23;;;16.40;;
75593;SDS011;64176;49.156;7.810;2023-03-23T18:29:05;29.92;;;22.77;;
75593;SDS011;64176;49.156;7.810;2023-03-23T18:31:49;23.02;;;16.17;;
75593;SDS011;64176;49.156;7.810;2023-03-23T18:34:33;17.13;;;12.43;;
75593;SDS011;64176;49.156;7.810;2023-03-23T18:37:19;12.65;;;9.85;;
75593;SDS011;64176;49.156;7.810;2023-03-23T18:40:03;15.52;;;13.93;;
75593;SDS011;64176;49.156;7.810;2023-03-23T18:42:53;15.13;;;13.25;;
75593;SDS011;64176;49.156;7.810;2023-03-23T18:45:37;19.67;;;14.75;;
75593;SDS011;64176;49.156;7.810;2023-03-23T18:48:22;17.08;;;13.15;;
75593;SDS011;64176;49.156;7.810;2023-03-23T18:51:07;14.77;;;10.07;;
75593;SDS011;64176;49.156;7.810;2023-03-23T18:54:04;18.23;;;11.93;;
75593;SDS011;64176;49.156;7.810;2023-03-23T18:56:48;9.93;;;8.73;;
75593;SDS011;64176;49.156;7.810;2023-03-23T18:59:32;11.68;;;10.38;;
75593;SDS011;64176;49.156;7.810;2023-03-23T19:02:17;13.10;;;11.52;;
75593;SDS011;64176;49.156;7.810;2023-03-23T19:05:02;14.45;;;10.43;;
75593;SDS011;64176;49.156;7.810;2023-03-23T19:07:46;21.58;;;13.55;;
75593;SDS011;64176;49.156;7.810;2023-03-23T19:10:30;23.75;;;13.60;;
75593;SDS011;64176;49.156;7.810;2023-03-23T19:13:14;26.98;;;17.65;;
75593;SDS011;64176;49.156;7.810;2023-03-23T19:16:01;19.30;;;15.05;;
75593;SDS011;64176;49.156;7.810;2023-03-23T19:18:48;24.02;;;12.88;;
75593;SDS011;64176;49.156;7.810;2023-03-23T19:21:36;17.75;;;12.52;;
75593;SDS011;64176;49.156;7.810;2023-03-23T19:24:22;19.75;;;11.88;;
75593;SDS011;64176;49.156;7.810;2023-03-23T19:27:06;17.02;;;10.98;;